• Join FlightAware (Why Join?)
  • Login
  • US Flag 
10:08AM EST


 

Airport Tracker/Info


-or-


 

Live Flight TrackerFlight Track Log ✈ WJA190 ✈ 20-Aug-2013 ✈ CYXX - CYYC

Flight Track Log - Related Links

Times and Time Zones

All times are in EDT time to prevent confusion due to time zone crossing. See the WJA190 flight status page for this flight to view local times or setup timezone preferences in your user account.

Time Position Orientation Groundspeed Altitude Reporting Facility
EDT Latitude Longitude Course Direction KTS MPH feet Rate Location/Type
08:05PM 49.0200 -122.3700 180° South 100 115  Level FlightAware
08:05PM 49.0210 -122.3500 86° East 161 185 200 1,320 Climbing FlightAware
08:05PM 49.0220 -122.3320 85° East 168 193 800 2,040 Climbing FlightAware
08:08PM 49.0537 -121.9373 79° East  Level FlightAware Approximate
08:08PM 48.9730 -122.1480 79° East 267 307 6,000  Level FlightAware
08:08PM 48.9760 -122.1390 63° Northeast 272 313 6,200 2,820 Climbing FlightAware
08:08PM 48.9850 -122.1160 59° Northeast 277 319 6,900 2,760 Climbing FlightAware
08:08PM 48.9970 -122.0910 54° Northeast 281 323 7,600 2,820 Climbing FlightAware
08:09PM 49.0130 -122.0590 53° Northeast 294 338 8,600 2,880 Climbing FlightAware
08:09PM 49.0300 -122.0260 52° Northeast 298 343 9,600 2,520 Climbing FlightAware
08:10PM 49.0600 -121.9660 53° Northeast 328 377 10,900 2,460 Climbing FlightAware
08:10PM 49.0780 -121.9100 64° Northeast 351 404 12,100 2,940 Climbing FlightAware
08:10PM 49.0800 -121.8360 88° East 364 419 13,600 2,940 Climbing FlightAware
08:11PM 49.0840 -121.7420 86° East 380 437 15,300 2,940 Climbing FlightAware
08:12PM 49.0890 -121.6410 86° East 390 449 17,300 2,940 Climbing FlightAware
08:12PM 49.0950 -121.5400 85° East 409 471 18,900 2,820 Climbing FlightAware
08:13PM 49.1010 -121.4320 85° East 422 486 20,600 2,820 Climbing FlightAware
08:13PM 49.1080 -121.3260 84° East 433 498 22,300 2,880 Climbing FlightAware
08:14PM 49.1150 -121.2210 84° East 441 507 24,000 2,640 Climbing FlightAware
08:15PM 49.1210 -121.1110 85° East 453 521 25,400 2,400 Climbing FlightAware
08:15PM 49.1270 -120.9940 85° East 461 531 26,900 2,460 Climbing FlightAware
08:16PM 49.1330 -120.8870 85° East 467 537 28,200 1,980 Climbing FlightAware
08:16PM 49.1410 -120.7680 84° East 481 554 29,200 1,740 Climbing FlightAware
08:17PM 49.1570 -120.6470 79° East 492 566 30,300 1,740 Climbing FlightAware
08:18PM 49.1890 -120.5340 67° East 498 573 31,300 1,620 Climbing FlightAware
08:18PM 49.2180 -120.4390 65° Northeast 506 582 32,100 1,680 Climbing FlightAware
08:19PM 49.2520 -120.3230 66° East 513 590 33,100 1,800 Climbing FlightAware
08:19PM 49.2900 -120.1980 65° Northeast 513 590 34,300 1,860 Climbing FlightAware
08:20PM 49.3220 -120.0870 66° East 511 588 35,400 1,800 Climbing FlightAware
08:20PM 49.3600 -119.9590 65° Northeast 512 589 36,500 1,620 Climbing FlightAware
08:21PM 49.3910 -119.8550 65° Northeast 513 590 37,300 1,380 Climbing FlightAware
08:22PM 49.4260 -119.7320 66° East 515 593 38,100 1,200 Climbing FlightAware
08:22PM 49.4600 -119.6140 66° East 515 593 38,800 720 Climbing FlightAware
08:23PM 49.4950 -119.4920 66° East 518 596 39,000 120 Climbing FlightAware
08:23PM 49.5000 -119.3833 66° East 510 587 39,000  Level Vancouver Center
08:24PM 49.5667 -119.1667 65° Northeast 520 598 39,000  Level Vancouver Center
08:25PM 49.6167 -118.9833 67° East 510 587 39,000  Level Vancouver Center
08:26PM 49.6833 -118.7667 64° Northeast 510 587 39,000  Level Vancouver Center
08:32PM 49.9910 -117.6950 64° Northeast 521 600 39,000  Level FlightAware
08:33PM 50.0370 -117.5250 67° East 520 598 39,000  Level FlightAware
08:33PM 50.0710 -117.3910 68° East 521 600 39,000  Level FlightAware
08:34PM 50.1020 -117.2720 68° East 520 598 39,000 -120 Level FlightAware
08:34PM 50.1340 -117.1470 68° East 521 600 38,900 -1,320 Descending FlightAware
08:35PM 50.1650 -117.0260 68° East 519 597 37,500 -2,340 Descending FlightAware
08:36PM 50.2010 -116.8870 68° East 516 594 36,000 -2,280 Descending FlightAware
08:36PM 50.2280 -116.7830 68° East 509 586 34,900 -2,220 Descending FlightAware
08:37PM 50.2580 -116.6640 68° East 521 600 33,600 -2,760 Descending FlightAware
08:37PM 50.2900 -116.5390 68° East 534 615 31,700 -3,000 Descending FlightAware
08:38PM 50.3260 -116.3960 68° East 537 618 29,900 -2,280 Descending FlightAware
08:38PM 50.3490 -116.3050 68° East 522 601 29,200 -840 Descending FlightAware
08:39PM 50.3830 -116.1670 69° East 511 588 29,000 -960 Descending FlightAware
08:40PM 50.4120 -116.0440 70° East 511 588 28,100 -1,920 Descending FlightAware
08:40PM 50.4380 -115.9230 71° East 501 577 26,800 -1,800 Descending FlightAware
08:41PM 50.4640 -115.8020 71° East 493 567 26,000 -960 Descending FlightAware
08:41PM 50.4930 -115.6690 71° East 482 555 25,600 -1,620 Descending FlightAware
08:42PM 50.5140 -115.5690 72° East 478 550 24,100 -2,700 Descending FlightAware
08:42PM 50.5390 -115.4570 71° East 461 531 22,700 -2,580 Descending FlightAware
08:43PM 50.5620 -115.3470 72° East 452 520 21,100 -2,880 Descending FlightAware
08:44PM 50.5850 -115.2400 71° East 441 507 19,400 -2,760 Descending FlightAware
08:44PM 50.6080 -115.1340 71° East 422 486 17,900 -2,580 Descending FlightAware
08:45PM 50.6290 -115.0360 71° East 411 473 16,400 -2,520 Descending FlightAware
08:45PM 50.6500 -114.9360 72° East 400 460 15,000 -2,160 Descending FlightAware
08:46PM 50.6690 -114.8430 72° East 379 436 13,900 -1,380 Descending FlightAware
08:47PM 50.6880 -114.7530 72° East 344 396 13,400 -780 Descending FlightAware
08:47PM 50.7050 -114.6750 71° East 327 376 13,000 -540 Descending FlightAware
08:47PM 50.7170 -114.6450 58° Northeast 309 356 13,000  Level FlightAware
08:48PM 50.7490 -114.5850 50° Northeast 300 345 13,000 -540 Level FlightAware
08:49PM 50.7800 -114.5290 49° Northeast 296 341 12,400 -1,260 Descending FlightAware
08:49PM 50.8120 -114.4700 49° Northeast 293 337 11,600 -1,380 Descending FlightAware
08:50PM 50.8420 -114.4150 49° Northeast 287 330 10,800 -1,320 Descending FlightAware
08:50PM 50.8630 -114.3740 51° Northeast 285 328 10,300 -1,380 Descending FlightAware
08:50PM 50.8680 -114.3520 70° East 284 327 10,000 -1,200 Descending FlightAware
08:50PM 50.8690 -114.3430 80° East 281 323 10,000 -840 Level FlightAware
08:51PM 50.8630 -114.2960 101° East 261 300 9,600 -1,440 Descending FlightAware
08:51PM 50.8570 -114.2610 105° East 257 296 9,000 -1,560 Descending FlightAware
08:51PM 50.8500 -114.2250 107° East 258 297 8,600 -1,020 Descending FlightAware
08:52PM 50.8460 -114.2090 112° Southeast 254 292 8,500 -420 Descending FlightAware
08:52PM 50.8420 -114.2010 128° Southeast 244 281 8,500  Level FlightAware
08:52PM 50.8380 -114.1950 137° Southeast 249 287 8,500 -1,020 Level FlightAware
08:52PM 50.8320 -114.1900 152° Southeast 238 274 8,300 -2,160 Descending FlightAware
08:52PM 50.8210 -114.1840 161° South 247 284 8,000 -1,680 Descending FlightAware
08:52PM 50.8000 -114.1690 156° South 240 276 7,500 -1,200 Descending FlightAware
08:53PM 50.7940 -114.1550 124° Southeast 233 268 7,400 -840 Descending FlightAware
08:53PM 50.7920 -114.1470 112° Southeast 229 264 7,300 -1,200 Descending FlightAware
08:53PM 50.7910 -114.1390 101° East 225 259 7,200 -1,140 Descending FlightAware
08:53PM 50.7910 -114.1220 90° East 216 249 7,000 -1,140 Descending FlightAware
08:53PM 50.7930 -114.1150 66° East 209 241 6,900 -1,200 Descending FlightAware
08:53PM 50.7950 -114.1090 62° Northeast 209 241 6,800 -1,200 Descending FlightAware
08:53PM 50.8020 -114.0980 45° Northeast 198 228 6,600 -780 Descending FlightAware
08:53PM 50.8130 -114.0870 32° Northeast 195 224 6,500 -180 Descending FlightAware
08:54PM 50.8300 -114.0760 22° Northeast 194 223 6,500  Level FlightAware
08:54PM 50.8470 -114.0650 22° Northeast 194 223 6,500  Level FlightAware
08:54PM 50.8630 -114.0550 22° Northeast 174 200 6,500  Level FlightAware
08:55PM 50.8820 -114.0430 22° Northeast 171 197 6,500  Level FlightAware
08:55PM 50.8960 -114.0350 20° North 162 186 6,500  Level FlightAware
08:56PM 50.9110 -114.0250 23° Northeast 158 182 6,500  Level FlightAware
08:56PM 50.9230 -114.0220 North 163 188 6,500  Level FlightAware
08:56PM 50.9330 -114.0210 North 165 190 6,500  Level FlightAware
08:56PM 50.9490 -114.0220 358° North 165 190 6,500 -300 Level FlightAware
08:57PM 50.9640 -114.0210 North 160 184 6,300 -960 Descending FlightAware
08:57PM 50.9860 -114.0220 358° North 160 184 5,700 -840 Descending FlightAware
08:58PM 50.9910 -114.0220 360° North 160 184 5,600 -780 Descending FlightAware
08:58PM 51.0150 -114.0210 North 144 166 5,200 -1,200 Descending FlightAware
08:58PM 51.0210 -114.0210 360° North 131 151 5,000 -900 Descending FlightAware
08:58PM 51.0360 -114.0210 360° North 132 152 4,700 -720 Descending FlightAware
08:59PM 51.0550 -114.0220 358° North 132 152 4,400 -720 Descending FlightAware
08:59PM 51.0670 -114.0220 360° North 132 152 4,100 -720 Descending FlightAware
09:00PM 51.0850 -114.0210 North 133 153 3,800 -660 Descending FlightAware
09:00PM 51.1010 -114.0210 360° North 127 146 3,500 -720 Descending FlightAware